1NY8 weather

Public forecast

Using degrees Fahrenheit for public forecast. Weather courtesy of forecast.io.

Closest aviation weather report (METAR) to Killian Airfield

Closest report is Ithaca Tompkins Regional Airport, 19.4 nm (35.8 km) SSE. Retrieved 2020/08/14 16:56 UTC (14 minutes ago):

KITH 141656Z 29009KT 10SM CLR 28/20 A3010 RMK AO2 SLP184 T02780200

Closest aviation forecast (TAF) to Killian Airfield

Closest forecast is Ithaca Tompkins Regional Airport, 19.4 nm (35.8 km) SSE. Retrieved 2020/08/14 12:33 UTC (5 hours ago):

TAF KITH 141131Z 1412/1512 04007KT P6SM SKC